Time;durP1;ratioP1;P1;durP2;ratioP2;P2;SDS_P1;SDS_P2;PMS_P1;PMS_P2;Temp;Humidity;BMP_temperature;BMP_pressure;BME280_temperature;BME280_humidity;BME280_pressure;Samples;Min_cycle;Max_cycle;Signal;HPM_P1;HPM_P2
2024/04/04 00:00:16;;;;;;;7.15;2.15;;;;;;;;;;2073472;28;20567;-71
2024/04/04 00:01:18;;;;;;;5.20;2.75;;;;;;;;;;2073411;28;20022;-69
2024/04/04 00:02:19;;;;;;;6.40;2.45;;;;;;;;;;2073513;28;20091;-69
2024/04/04 00:03:21;;;;;;;7.45;2.58;;;;;;;;;;2073595;28;20549;-69
2024/04/04 00:04:23;;;;;;;6.00;2.60;;;;;;;;;;2073332;28;20120;-69
2024/04/04 00:05:25;;;;;;;6.18;2.53;;;;;;;;;;2073392;28;20030;-70
2024/04/04 00:06:26;;;;;;;7.40;2.30;;;;;;;;;;2073310;28;20030;-69
2024/04/04 00:07:28;;;;;;;5.18;2.17;;;;;;;;;;2073285;28;20490;-70
2024/04/04 00:08:29;;;;;;;7.68;3.03;;;;;;;;;;2073418;28;20026;-71
2024/04/04 00:09:31;;;;;;;8.48;2.72;;;;;;;;;;2073284;28;20076;-70
2024/04/04 00:10:32;;;;;;;7.20;2.20;;;;;;;;;;2073304;28;20118;-69
2024/04/04 00:11:33;;;;;;;5.72;2.30;;;;;;;;;;2070844;28;20092;-72
2024/04/04 00:12:35;;;;;;;3.78;2.30;;;;;;;;;;2072870;28;20532;-70
2024/04/04 00:13:36;;;;;;;5.50;2.40;;;;;;;;;;2072786;28;20026;-69
2024/04/04 00:14:38;;;;;;;3.47;1.90;;;;;;;;;;2073377;28;20100;-70
2024/04/04 00:15:39;;;;;;;5.90;2.40;;;;;;;;;;2073527;28;20021;-69
2024/04/04 00:16:42;;;;;;;4.68;2.45;;;;;;;;;;2073459;28;20032;-70
2024/04/04 00:17:45;;;;;;;5.10;2.53;;;;;;;;;;2073428;28;20052;-70
2024/04/04 00:18:47;;;;;;;5.35;2.30;;;;;;;;;;2073121;28;20030;-69
2024/04/04 00:19:50;;;;;;;4.68;2.25;;;;;;;;;;2073363;28;20053;-70
2024/04/04 00:20:51;;;;;;;4.25;2.22;;;;;;;;;;2073282;28;20125;-69
2024/04/04 00:21:52;;;;;;;6.25;2.88;;;;;;;;;;2073269;28;20026;-69
2024/04/04 00:22:54;;;;;;;4.57;2.38;;;;;;;;;;2070780;28;20037;-69
2024/04/04 00:23:56;;;;;;;5.68;2.30;;;;;;;;;;2073300;28;20526;-70
2024/04/04 00:24:58;;;;;;;6.05;2.50;;;;;;;;;;2073309;28;20022;-69
2024/04/04 00:26:00;;;;;;;6.03;2.38;;;;;;;;;;2073209;28;20037;-71
2024/04/04 00:27:02;;;;;;;4.82;2.10;;;;;;;;;;2073368;28;20026;-69
2024/04/04 00:28:04;;;;;;;7.55;2.45;;;;;;;;;;2073160;28;20479;-69
2024/04/04 00:29:05;;;;;;;4.15;2.38;;;;;;;;;;2071093;28;20022;-70
2024/04/04 00:30:06;;;;;;;8.27;2.63;;;;;;;;;;2072960;28;20033;-70
2024/04/04 00:31:08;;;;;;;6.22;2.80;;;;;;;;;;2073281;28;20025;-68
2024/04/04 00:32:10;;;;;;;5.78;2.28;;;;;;;;;;2080879;28;20033;-69
2024/04/04 00:33:11;;;;;;;6.28;2.60;;;;;;;;;;2080514;28;20032;-68
2024/04/04 00:34:14;;;;;;;9.07;2.70;;;;;;;;;;2070603;28;20026;-69
2024/04/04 00:35:16;;;;;;;5.07;2.55;;;;;;;;;;2072637;28;20095;-68
2024/04/04 00:36:17;;;;;;;6.80;2.60;;;;;;;;;;2072513;28;20030;-70
2024/04/04 00:37:19;;;;;;;6.07;2.75;;;;;;;;;;2073230;28;20026;-69
2024/04/04 00:38:20;;;;;;;5.88;2.67;;;;;;;;;;2073163;28;20018;-68
2024/04/04 00:39:21;;;;;;;7.10;2.47;;;;;;;;;;2073193;28;20558;-68
2024/04/04 00:40:23;;;;;;;4.35;2.65;;;;;;;;;;2069677;28;20018;-68
2024/04/04 00:41:25;;;;;;;7.28;2.47;;;;;;;;;;2071830;28;20072;-68
2024/04/04 00:42:26;;;;;;;7.93;2.72;;;;;;;;;;2071523;28;20022;-69
2024/04/04 00:43:27;;;;;;;6.20;2.53;;;;;;;;;;2073113;28;20025;-69
2024/04/04 00:44:29;;;;;;;4.93;2.35;;;;;;;;;;2072819;28;20046;-69
2024/04/04 00:45:31;;;;;;;7.22;2.45;;;;;;;;;;2073074;28;20045;-70
2024/04/04 00:46:32;;;;;;;5.63;2.55;;;;;;;;;;2073078;28;20084;-70
2024/04/04 00:47:34;;;;;;;4.95;2.70;;;;;;;;;;2070789;28;20018;-70
2024/04/04 00:48:36;;;;;;;7.40;2.78;;;;;;;;;;2069893;28;20036;-69
2024/04/04 00:49:38;;;;;;;5.88;2.83;;;;;;;;;;2072737;28;20458;-69
2024/04/04 00:50:41;;;;;;;3.97;2.20;;;;;;;;;;2073186;28;20061;-70
2024/04/04 00:51:43;;;;;;;4.65;2.22;;;;;;;;;;2072272;28;20010;-71
2024/04/04 00:52:44;;;;;;;4.35;2.42;;;;;;;;;;2073325;28;20105;-71
2024/04/04 00:53:46;;;;;;;3.63;1.88;;;;;;;;;;2073145;28;20021;-67
2024/04/04 00:54:48;;;;;;;4.63;1.73;;;;;;;;;;2073104;28;20041;-69
2024/04/04 00:55:49;;;;;;;8.30;1.90;;;;;;;;;;2073157;28;20025;-69
2024/04/04 00:56:51;;;;;;;6.18;2.40;;;;;;;;;;2071916;28;20065;-69
2024/04/04 00:57:53;;;;;;;5.40;1.45;;;;;;;;;;2073120;28;20033;-70
2024/04/04 00:58:54;;;;;;;5.18;1.73;;;;;;;;;;2070436;28;20456;-69
2024/04/04 00:59:56;;;;;;;5.63;2.08;;;;;;;;;;2073058;28;20096;-69
2024/04/04 01:00:58;;;;;;;5.85;1.67;;;;;;;;;;2073053;28;20025;-69
2024/04/04 01:01:59;;;;;;;3.13;1.60;;;;;;;;;;2073092;28;20535;-69
2024/04/04 01:03:02;;;;;;;3.65;1.73;;;;;;;;;;2073093;28;20030;-69
2024/04/04 01:04:03;;;;;;;4.10;1.40;;;;;;;;;;2072944;28;20481;-70
2024/04/04 01:05:05;;;;;;;3.75;1.40;;;;;;;;;;2072132;28;20025;-69
2024/04/04 01:06:06;;;;;;;5.63;1.70;;;;;;;;;;2072947;28;20018;-69
2024/04/04 01:07:08;;;;;;;4.65;1.35;;;;;;;;;;2072862;28;20113;-69
2024/04/04 01:08:11;;;;;;;4.10;1.50;;;;;;;;;;2072710;28;20022;-70
2024/04/04 01:09:15;;;;;;;2.97;1.45;;;;;;;;;;2070236;28;20033;-68
2024/04/04 01:10:19;;;;;;;3.97;1.48;;;;;;;;;;2072375;28;20502;-70
2024/04/04 01:11:20;;;;;;;4.25;1.90;;;;;;;;;;2073074;28;20101;-69
2024/04/04 01:12:21;;;;;;;5.50;1.35;;;;;;;;;;2072480;28;20037;-69
2024/04/04 01:13:23;;;;;;;5.97;1.40;;;;;;;;;;2072410;28;20110;-70
2024/04/04 01:14:24;;;;;;;6.22;1.73;;;;;;;;;;2072537;28;20166;-70
2024/04/04 01:15:26;;;;;;;3.10;1.58;;;;;;;;;;2072622;28;20034;-69
2024/04/04 01:16:28;;;;;;;2.42;1.30;;;;;;;;;;2080050;28;20033;-69
2024/04/04 01:17:29;;;;;;;2.45;1.20;;;;;;;;;;2072988;28;20033;-69
2024/04/04 01:18:30;;;;;;;6.78;2.08;;;;;;;;;;2072950;28;20498;-69
2024/04/04 01:19:32;;;;;;;4.57;1.35;;;;;;;;;;2072573;28;20049;-70
2024/04/04 01:20:33;;;;;;;5.53;1.95;;;;;;;;;;2072264;28;20022;-69
2024/04/04 01:21:35;;;;;;;3.35;1.67;;;;;;;;;;2072349;28;20033;-69
2024/04/04 01:22:37;;;;;;;7.25;1.98;;;;;;;;;;2072014;28;20049;-69
2024/04/04 01:23:42;;;;;;;3.65;1.73;;;;;;;;;;2077003;28;20068;-70
2024/04/04 01:24:43;;;;;;;7.10;1.90;;;;;;;;;;2073209;28;20108;-70
2024/04/04 01:25:45;;;;;;;4.80;1.52;;;;;;;;;;2070528;28;20022;-69
2024/04/04 01:26:46;;;;;;;6.22;1.77;;;;;;;;;;2073052;28;20046;-69
2024/04/04 01:27:49;;;;;;;7.47;2.17;;;;;;;;;;2072981;28;20014;-70
2024/04/04 01:28:50;;;;;;;3.05;1.67;;;;;;;;;;2073026;28;20030;-69
2024/04/04 01:29:52;;;;;;;3.10;1.73;;;;;;;;;;2072229;28;20427;-70
2024/04/04 01:30:54;;;;;;;6.85;1.80;;;;;;;;;;2071639;28;20049;-71
2024/04/04 01:31:56;;;;;;;4.38;1.77;;;;;;;;;;2073007;28;20065;-68
2024/04/04 01:32:57;;;;;;;4.50;1.80;;;;;;;;;;2072833;28;20079;-70
2024/04/04 01:33:58;;;;;;;4.20;1.80;;;;;;;;;;2072955;28;20025;-71
2024/04/04 01:35:00;;;;;;;5.30;1.88;;;;;;;;;;2072834;28;20510;-70
2024/04/04 01:36:01;;;;;;;5.47;1.77;;;;;;;;;;2072888;28;20041;-69
2024/04/04 01:37:02;;;;;;;5.75;1.80;;;;;;;;;;2072706;28;20025;-69
2024/04/04 01:38:04;;;;;;;4.43;2.10;;;;;;;;;;2072823;28;20493;-71
2024/04/04 01:39:05;;;;;;;5.70;1.92;;;;;;;;;;2072747;28;20455;-69
2024/04/04 01:40:08;;;;;;;5.13;1.42;;;;;;;;;;2079868;28;20497;-69
2024/04/04 01:41:09;;;;;;;2.72;1.48;;;;;;;;;;2080014;28;20033;-69
2024/04/04 01:42:11;;;;;;;3.10;1.63;;;;;;;;;;2072880;28;20475;-68
2024/04/04 01:43:13;;;;;;;3.90;1.35;;;;;;;;;;2072863;28;20030;-69
2024/04/04 01:44:15;;;;;;;3.60;1.58;;;;;;;;;;2072770;28;20092;-70
2024/04/04 01:45:17;;;;;;;3.22;1.90;;;;;;;;;;2072831;28;20030;-70
2024/04/04 01:46:18;;;;;;;5.18;1.70;;;;;;;;;;2072771;28;20022;-70
2024/04/04 01:47:20;;;;;;;5.40;1.92;;;;;;;;;;2072410;28;20022;-71
2024/04/04 01:48:21;;;;;;;3.95;1.70;;;;;;;;;;2072422;28;20104;-70
2024/04/04 01:49:22;;;;;;;4.15;1.50;;;;;;;;;;2072764;28;20097;-71
2024/04/04 01:50:24;;;;;;;2.08;1.35;;;;;;;;;;2070260;28;20037;-71
2024/04/04 01:51:25;;;;;;;3.85;1.70;;;;;;;;;;2072853;28;20168;-70
2024/04/04 01:52:27;;;;;;;3.67;1.45;;;;;;;;;;2072852;28;20022;-71
2024/04/04 01:53:28;;;;;;;3.00;1.50;;;;;;;;;;2072942;28;20022;-71
2024/04/04 01:54:29;;;;;;;3.72;1.70;;;;;;;;;;2072737;28;20022;-70
2024/04/04 01:55:31;;;;;;;4.63;1.42;;;;;;;;;;2072855;28;20391;-71
2024/04/04 01:56:32;;;;;;;2.92;1.65;;;;;;;;;;2072044;28;20573;-68
2024/04/04 01:57:33;;;;;;;4.13;1.60;;;;;;;;;;2070170;28;20030;-69
2024/04/04 01:58:35;;;;;;;5.15;1.90;;;;;;;;;;2072913;28;20026;-68
2024/04/04 01:59:36;;;;;;;5.65;1.58;;;;;;;;;;2072818;28;20022;-68
2024/04/04 02:00:38;;;;;;;5.00;1.77;;;;;;;;;;2072777;28;20029;-72
2024/04/04 02:01:39;;;;;;;4.97;1.75;;;;;;;;;;2072808;28;20054;-70
2024/04/04 02:02:41;;;;;;;5.90;1.77;;;;;;;;;;2072783;28;20057;-69
2024/04/04 02:03:42;;;;;;;5.43;1.90;;;;;;;;;;2072858;28;20022;-69
2024/04/04 02:04:44;;;;;;;5.28;1.90;;;;;;;;;;2070287;28;20025;-70
2024/04/04 02:05:45;;;;;;;3.95;1.88;;;;;;;;;;2072903;28;20068;-69
2024/04/04 02:06:46;;;;;;;3.72;1.63;;;;;;;;;;2072823;28;20029;-70
2024/04/04 02:07:48;;;;;;;5.03;1.65;;;;;;;;;;2072143;28;20018;-70
2024/04/04 02:08:49;;;;;;;4.15;1.60;;;;;;;;;;2072289;28;20025;-70
2024/04/04 02:09:50;;;;;;;5.07;1.80;;;;;;;;;;2072296;28;20023;-69
2024/04/04 02:10:52;;;;;;;3.83;1.75;;;;;;;;;;2072837;28;20514;-70
2024/04/04 02:11:53;;;;;;;5.20;2.05;;;;;;;;;;2072863;28;20105;-71
2024/04/04 02:12:56;;;;;;;3.90;1.90;;;;;;;;;;2072933;28;20045;-70
2024/04/04 02:13:58;;;;;;;3.85;1.73;;;;;;;;;;2072805;28;20422;-70
2024/04/04 02:14:59;;;;;;;4.05;1.75;;;;;;;;;;2072889;28;20022;-69
2024/04/04 02:16:01;;;;;;;4.65;1.77;;;;;;;;;;2072686;28;20507;-70
2024/04/04 02:17:04;;;;;;;3.45;1.70;;;;;;;;;;2072865;28;20462;-70
2024/04/04 02:18:06;;;;;;;3.58;1.77;;;;;;;;;;2070780;28;20024;-69
2024/04/04 02:19:08;;;;;;;4.28;2.00;;;;;;;;;;2072664;28;20388;-70
2024/04/04 02:20:12;;;;;;;4.90;2.10;;;;;;;;;;2073934;28;20091;-70
2024/04/04 02:21:13;;;;;;;5.30;1.92;;;;;;;;;;2073013;28;20030;-70
2024/04/04 02:22:14;;;;;;;4.32;1.88;;;;;;;;;;2074335;28;20026;-71
2024/04/04 02:23:16;;;;;;;4.60;1.98;;;;;;;;;;2074345;28;20021;-70
2024/04/04 02:24:17;;;;;;;4.30;2.13;;;;;;;;;;2074101;28;20097;-70
2024/04/04 02:25:18;;;;;;;7.45;2.38;;;;;;;;;;2073704;28;20029;-70
2024/04/04 02:26:20;;;;;;;4.88;1.95;;;;;;;;;;2073534;28;20587;-70
2024/04/04 02:27:21;;;;;;;4.30;1.88;;;;;;;;;;2074248;28;20477;-69
2024/04/04 02:28:24;;;;;;;3.75;1.90;;;;;;;;;;2074237;28;20033;-70
2024/04/04 02:29:26;;;;;;;3.17;1.88;;;;;;;;;;2073982;28;20045;-69
2024/04/04 02:30:27;;;;;;;5.18;2.10;;;;;;;;;;2073619;28;20018;-70
2024/04/04 02:31:28;;;;;;;3.72;1.95;;;;;;;;;;2073634;28;20022;-69
2024/04/04 02:32:30;;;;;;;4.60;2.10;;;;;;;;;;2074191;28;20100;-70
2024/04/04 02:33:31;;;;;;;4.25;1.92;;;;;;;;;;2074277;28;20049;-71
2024/04/04 02:34:32;;;;;;;4.15;1.80;;;;;;;;;;2074121;28;20439;-70
2024/04/04 02:35:34;;;;;;;6.28;2.47;;;;;;;;;;2071745;28;20040;-69
2024/04/04 02:36:35;;;;;;;5.10;2.53;;;;;;;;;;2074122;28;20032;-70
2024/04/04 02:37:36;;;;;;;3.78;2.10;;;;;;;;;;2073953;28;20022;-69
2024/04/04 02:38:38;;;;;;;3.75;2.22;;;;;;;;;;2074128;28;20022;-69
2024/04/04 02:39:39;;;;;;;5.90;2.70;;;;;;;;;;2073630;28;20487;-70
2024/04/04 02:40:41;;;;;;;6.20;2.88;;;;;;;;;;2074218;28;20026;-70
2024/04/04 02:41:43;;;;;;;8.90;2.80;;;;;;;;;;2074148;28;20033;-69
2024/04/04 02:42:44;;;;;;;6.95;2.65;;;;;;;;;;2071585;28;20099;-70
2024/04/04 02:43:45;;;;;;;4.95;2.40;;;;;;;;;;2073966;28;20071;-69
2024/04/04 02:44:47;;;;;;;7.97;3.28;;;;;;;;;;2073688;28;20085;-69
2024/04/04 02:45:58;;;;;;;5.68;2.88;;;;;;;;;;2072374;28;20104;-68
2024/04/04 02:47:00;;;;;;;7.45;3.25;;;;;;;;;;2072682;28;20458;-68
2024/04/04 02:48:01;;;;;;;9.05;2.97;;;;;;;;;;2074060;28;20010;-70
2024/04/04 02:49:03;;;;;;;5.72;2.83;;;;;;;;;;2074032;28;20033;-70
2024/04/04 02:50:04;;;;;;;5.93;3.10;;;;;;;;;;2074022;28;20022;-70
2024/04/04 02:51:06;;;;;;;7.43;2.88;;;;;;;;;;2074128;28;20022;-71
2024/04/04 02:52:08;;;;;;;7.15;3.03;;;;;;;;;;2074013;28;20446;-70
2024/04/04 02:53:09;;;;;;;4.40;2.97;;;;;;;;;;2074071;28;20057;-70
2024/04/04 02:54:10;;;;;;;5.25;3.05;;;;;;;;;;2074049;28;20451;-70
2024/04/04 02:55:12;;;;;;;5.63;2.90;;;;;;;;;;2074098;28;20053;-69
2024/04/04 02:56:13;;;;;;;6.93;3.60;;;;;;;;;;2073246;28;20509;-69
2024/04/04 02:57:14;;;;;;;6.22;3.00;;;;;;;;;;2073522;28;20041;-69
2024/04/04 02:58:16;;;;;;;5.97;3.05;;;;;;;;;;2073483;28;20028;-69
2024/04/04 02:59:17;;;;;;;7.25;2.97;;;;;;;;;;2074075;28;20014;-67
2024/04/04 03:00:18;;;;;;;4.70;3.25;;;;;;;;;;2073965;28;20398;-69
2024/04/04 03:01:20;;;;;;;5.95;2.95;;;;;;;;;;2073898;28;20037;-68
2024/04/04 03:02:21;;;;;;;6.97;3.60;;;;;;;;;;2074039;28;20498;-69
2024/04/04 03:03:23;;;;;;;7.53;3.85;;;;;;;;;;2073476;28;20029;-70
2024/04/04 03:04:24;;;;;;;7.60;3.38;;;;;;;;;;2073396;28;20026;-69
2024/04/04 03:05:25;;;;;;;6.80;3.00;;;;;;;;;;2074030;28;20026;-69
2024/04/04 03:06:27;;;;;;;10.25;3.95;;;;;;;;;;2073990;28;20443;-69
2024/04/04 03:07:28;;;;;;;6.32;2.95;;;;;;;;;;2074047;28;20033;-69
2024/04/04 03:08:29;;;;;;;8.30;3.60;;;;;;;;;;2073947;28;20471;-70
2024/04/04 03:09:31;;;;;;;6.85;3.00;;;;;;;;;;2073762;28;20102;-69
2024/04/04 03:10:33;;;;;;;8.18;3.58;;;;;;;;;;2073797;28;20022;-70
2024/04/04 03:11:34;;;;;;;5.97;3.15;;;;;;;;;;2074034;28;20485;-69
2024/04/04 03:12:37;;;;;;;7.45;2.50;;;;;;;;;;2073886;28;20017;-69
2024/04/04 03:13:38;;;;;;;6.85;2.97;;;;;;;;;;2073950;28;20447;-67
2024/04/04 03:14:40;;;;;;;4.82;2.00;;;;;;;;;;2074015;28;20230;-70
2024/04/04 03:15:41;;;;;;;3.30;2.30;;;;;;;;;;2073996;28;20030;-69
2024/04/04 03:16:43;;;;;;;3.28;1.85;;;;;;;;;;2073918;28;20108;-69
2024/04/04 03:17:44;;;;;;;2.88;1.52;;;;;;;;;;2071484;28;20076;-70
2024/04/04 03:18:45;;;;;;;3.15;1.55;;;;;;;;;;2073985;28;20042;-70
2024/04/04 03:19:47;;;;;;;6.93;1.75;;;;;;;;;;2074018;28;20426;-69
2024/04/04 03:20:48;;;;;;;2.83;1.30;;;;;;;;;;2073879;28;20022;-70
2024/04/04 03:21:50;;;;;;;4.00;1.55;;;;;;;;;;2073844;28;20430;-70
2024/04/04 03:22:51;;;;;;;4.63;1.48;;;;;;;;;;2073748;28;20025;-70
2024/04/04 03:23:52;;;;;;;3.35;1.70;;;;;;;;;;2073875;28;20076;-69
2024/04/04 03:24:54;;;;;;;3.58;1.55;;;;;;;;;;2070000;28;20028;-69
2024/04/04 03:25:56;;;;;;;3.00;1.55;;;;;;;;;;2073717;28;20105;-69
2024/04/04 03:26:57;;;;;;;3.70;1.25;;;;;;;;;;2073856;28;20033;-69
2024/04/04 03:28:00;;;;;;;5.05;1.30;;;;;;;;;;2073777;28;20466;-70
2024/04/04 03:29:01;;;;;;;3.50;1.55;;;;;;;;;;2073831;28;20018;-69
2024/04/04 03:30:03;;;;;;;2.47;1.10;;;;;;;;;;2073690;28;20100;-68
2024/04/04 03:31:07;;;;;;;3.05;1.10;;;;;;;;;;2073738;28;20017;-70
2024/04/04 03:32:09;;;;;;;2.25;1.30;;;;;;;;;;2073353;28;20040;-69
2024/04/04 03:33:10;;;;;;;3.50;1.60;;;;;;;;;;2073711;28;20022;-69
2024/04/04 03:34:11;;;;;;;3.22;1.30;;;;;;;;;;2073627;28;20543;-68
2024/04/04 03:35:13;;;;;;;2.10;1.40;;;;;;;;;;2073708;28;20615;-69
2024/04/04 03:36:14;;;;;;;1.73;1.23;;;;;;;;;;2073680;28;20030;-70
2024/04/04 03:37:16;;;;;;;2.38;1.27;;;;;;;;;;2073773;28;20041;-70
2024/04/04 03:38:17;;;;;;;4.32;1.63;;;;;;;;;;2073511;28;20390;-70
2024/04/04 03:39:18;;;;;;;2.10;1.30;;;;;;;;;;2073752;28;20479;-69
2024/04/04 03:40:20;;;;;;;2.67;1.60;;;;;;;;;;2073118;28;20022;-69
2024/04/04 03:41:21;;;;;;;3.38;1.60;;;;;;;;;;2073741;28;20487;-69
2024/04/04 03:42:22;;;;;;;2.53;1.80;;;;;;;;;;2073782;28;20161;-70
2024/04/04 03:43:24;;;;;;;3.35;1.83;;;;;;;;;;2073703;28;20034;-69
2024/04/04 03:44:25;;;;;;;2.50;1.40;;;;;;;;;;2073555;28;20503;-70
2024/04/04 03:45:26;;;;;;;3.35;1.63;;;;;;;;;;2073767;28;20030;-69
2024/04/04 03:46:28;;;;;;;4.15;1.75;;;;;;;;;;2073656;28;20033;-70
2024/04/04 03:47:29;;;;;;;2.30;1.60;;;;;;;;;;2073647;28;20015;-69
2024/04/04 03:48:31;;;;;;;3.60;1.63;;;;;;;;;;2073594;28;20474;-70
2024/04/04 03:49:32;;;;;;;2.75;1.70;;;;;;;;;;2073057;28;20018;-70
2024/04/04 03:50:34;;;;;;;3.25;1.60;;;;;;;;;;2070477;28;20113;-69
2024/04/04 03:51:35;;;;;;;2.20;1.42;;;;;;;;;;2073146;28;20188;-70
2024/04/04 03:52:36;;;;;;;5.60;1.65;;;;;;;;;;2073598;28;20033;-70
2024/04/04 03:53:38;;;;;;;2.22;1.40;;;;;;;;;;2073578;28;20026;-69
2024/04/04 03:54:39;;;;;;;4.00;1.63;;;;;;;;;;2073637;28;20022;-70
2024/04/04 03:55:41;;;;;;;5.15;1.83;;;;;;;;;;2073203;28;20037;-70
2024/04/04 03:56:43;;;;;;;2.28;1.27;;;;;;;;;;2073588;28;20072;-69
2024/04/04 03:57:44;;;;;;;2.28;1.45;;;;;;;;;;2073715;28;20114;-69
2024/04/04 03:58:46;;;;;;;2.13;1.25;;;;;;;;;;2073615;28;20026;-70
2024/04/04 03:59:47;;;;;;;2.05;1.20;;;;;;;;;;2073648;28;20471;-70
2024/04/04 04:00:49;;;;;;;1.73;1.02;;;;;;;;;;2073575;28;20028;-70
2024/04/04 04:01:52;;;;;;;1.73;1.20;;;;;;;;;;2073568;28;20419;-70
2024/04/04 04:02:53;;;;;;;2.10;1.02;;;;;;;;;;2070917;28;20029;-69
2024/04/04 04:03:55;;;;;;;1.83;1.00;;;;;;;;;;2072898;28;20538;-69
2024/04/04 04:04:56;;;;;;;2.53;1.38;;;;;;;;;;2072888;28;20029;-69
2024/04/04 04:05:57;;;;;;;1.75;1.20;;;;;;;;;;2073588;28;20555;-69
2024/04/04 04:06:59;;;;;;;3.00;1.20;;;;;;;;;;2073490;28;20022;-69
2024/04/04 04:08:01;;;;;;;3.67;1.30;;;;;;;;;;2073442;28;20076;-68
2024/04/04 04:09:02;;;;;;;2.70;1.35;;;;;;;;;;2073666;28;20014;-69
2024/04/04 04:10:03;;;;;;;3.03;1.25;;;;;;;;;;2072947;28;20053;-70
2024/04/04 04:11:05;;;;;;;2.67;1.30;;;;;;;;;;2071253;28;20548;-69
2024/04/04 04:12:07;;;;;;;2.88;1.30;;;;;;;;;;2073535;28;20046;-70
2024/04/04 04:13:08;;;;;;;3.65;1.67;;;;;;;;;;2073501;28;20133;-70
2024/04/04 04:14:10;;;;;;;1.80;1.35;;;;;;;;;;2073497;28;20033;-70
2024/04/04 04:15:11;;;;;;;2.00;1.30;;;;;;;;;;2073423;28;20025;-70
2024/04/04 04:16:13;;;;;;;2.42;1.38;;;;;;;;;;2073476;28;20018;-70
2024/04/04 04:17:15;;;;;;;2.40;1.48;;;;;;;;;;2071163;28;20018;-70
2024/04/04 04:18:16;;;;;;;2.65;1.50;;;;;;;;;;2073444;28;20030;-68
2024/04/04 04:19:17;;;;;;;2.65;1.20;;;;;;;;;;2073476;28;20025;-69
2024/04/04 04:21:39;;;;;;;2.88;0.95;;;;;;;;;;2073342;28;20148;-70
2024/04/04 04:22:40;;;;;;;4.75;1.50;;;;;;;;;;2073518;28;20092;-70
2024/04/04 04:23:42;;;;;;;4.10;1.40;;;;;;;;;;2073189;28;20431;-69
2024/04/04 04:24:43;;;;;;;2.00;1.20;;;;;;;;;;2073462;28;20026;-70
2024/04/04 04:25:45;;;;;;;2.58;1.35;;;;;;;;;;2070968;28;20120;-70
2024/04/04 04:26:46;;;;;;;3.42;1.65;;;;;;;;;;2073358;28;20034;-71
2024/04/04 04:27:47;;;;;;;5.03;1.40;;;;;;;;;;2073374;28;20014;-70
2024/04/04 04:28:49;;;;;;;3.13;1.88;;;;;;;;;;2073232;28;20026;-70
2024/04/04 04:29:50;;;;;;;3.08;1.50;;;;;;;;;;2070638;28;20474;-70
2024/04/04 04:30:52;;;;;;;1.80;1.23;;;;;;;;;;2071470;28;20045;-70
2024/04/04 04:31:56;;;;;;;4.03;1.60;;;;;;;;;;2068653;28;20022;-69
2024/04/04 04:32:58;;;;;;;4.18;1.40;;;;;;;;;;2071874;28;20398;-70
2024/04/04 04:34:00;;;;;;;3.13;1.50;;;;;;;;;;2071842;28;20475;-70
2024/04/04 04:35:01;;;;;;;2.92;1.45;;;;;;;;;;2072802;28;20069;-70
2024/04/04 04:36:03;;;;;;;3.28;1.38;;;;;;;;;;2072568;28;20581;-71
2024/04/04 04:37:05;;;;;;;2.33;1.42;;;;;;;;;;2070895;28;20022;-70
2024/04/04 04:38:06;;;;;;;2.65;1.55;;;;;;;;;;2073359;28;20013;-70
2024/04/04 04:39:07;;;;;;;3.75;1.60;;;;;;;;;;2073141;28;20021;-70
2024/04/04 04:40:09;;;;;;;4.05;1.70;;;;;;;;;;2072605;28;20457;-70
2024/04/04 04:41:11;;;;;;;2.47;1.20;;;;;;;;;;2073442;28;20038;-70
2024/04/04 04:42:12;;;;;;;2.83;1.48;;;;;;;;;;2073288;28;20036;-70
2024/04/04 04:43:14;;;;;;;4.32;1.67;;;;;;;;;;2070124;28;20100;-70
2024/04/04 04:44:15;;;;;;;3.25;1.52;;;;;;;;;;2072855;28;20050;-70
2024/04/04 04:45:18;;;;;;;2.63;1.58;;;;;;;;;;2073333;28;20088;-70
2024/04/04 04:46:19;;;;;;;4.05;1.42;;;;;;;;;;2073219;28;20530;-70
2024/04/04 04:47:20;;;;;;;3.00;1.60;;;;;;;;;;2073332;28;20025;-70
2024/04/04 04:48:22;;;;;;;3.67;1.65;;;;;;;;;;2073180;28;20022;-70
2024/04/04 04:49:24;;;;;;;3.67;1.70;;;;;;;;;;2070724;28;20117;-69
2024/04/04 04:50:25;;;;;;;2.53;1.35;;;;;;;;;;2073107;28;20022;-69
2024/04/04 04:51:28;;;;;;;3.63;1.30;;;;;;;;;;2073130;28;20437;-70
2024/04/04 04:52:29;;;;;;;3.70;1.67;;;;;;;;;;2073232;28;20018;-70
2024/04/04 04:53:30;;;;;;;5.40;1.98;;;;;;;;;;2073082;28;20033;-70
2024/04/04 04:54:32;;;;;;;3.75;1.63;;;;;;;;;;2073192;28;20113;-69
2024/04/04 04:55:33;;;;;;;4.22;1.63;;;;;;;;;;2073238;28;20685;-69
2024/04/04 04:56:34;;;;;;;4.75;1.73;;;;;;;;;;2072553;28;20125;-69
2024/04/04 04:57:36;;;;;;;2.80;1.70;;;;;;;;;;2073222;28;20093;-69
2024/04/04 04:58:37;;;;;;;4.63;2.10;;;;;;;;;;2073143;28;20045;-69
2024/04/04 04:59:39;;;;;;;3.25;1.65;;;;;;;;;;2073208;28;20026;-69
2024/04/04 05:00:40;;;;;;;3.45;1.58;;;;;;;;;;2073209;28;20030;-70
2024/04/04 05:01:41;;;;;;;4.13;1.63;;;;;;;;;;2073227;28;20033;-70
2024/04/04 05:02:43;;;;;;;10.45;2.10;;;;;;;;;;2073245;28;20018;-69
2024/04/04 05:03:46;;;;;;;6.22;1.45;;;;;;;;;;2072413;28;20076;-70
2024/04/04 05:04:47;;;;;;;2.42;1.50;;;;;;;;;;2072592;28;20051;-69
2024/04/04 05:05:50;;;;;;;2.58;1.27;;;;;;;;;;2073183;28;20068;-71
2024/04/04 05:06:53;;;;;;;3.80;1.80;;;;;;;;;;2068656;28;20053;-70
2024/04/04 05:07:54;;;;;;;3.92;1.90;;;;;;;;;;2067559;28;20045;-70
2024/04/04 05:08:59;;;;;;;5.60;1.50;;;;;;;;;;2068966;28;20050;-69
2024/04/04 05:10:01;;;;;;;2.55;1.17;;;;;;;;;;2070706;28;20044;-70
2024/04/04 05:11:04;;;;;;;2.40;1.50;;;;;;;;;;2068036;28;20125;-70
2024/04/04 05:12:06;;;;;;;4.45;2.10;;;;;;;;;;2071519;28;20037;-79
2024/04/04 05:13:07;;;;;;;4.50;1.63;;;;;;;;;;2070858;28;20029;-73
2024/04/04 05:14:09;;;;;;;4.78;1.58;;;;;;;;;;2071624;28;20076;-73
2024/04/04 05:15:10;;;;;;;3.25;1.52;;;;;;;;;;2071976;28;20038;-69
2024/04/04 05:16:12;;;;;;;3.60;1.63;;;;;;;;;;2071535;28;20030;-69
2024/04/04 05:17:13;;;;;;;5.75;1.58;;;;;;;;;;2069000;28;20445;-69
2024/04/04 05:18:15;;;;;;;5.78;1.90;;;;;;;;;;2067578;28;20014;-69
2024/04/04 05:19:17;;;;;;;3.55;2.00;;;;;;;;;;2071372;28;20049;-70
2024/04/04 05:20:18;;;;;;;6.07;2.45;;;;;;;;;;2070561;28;20394;-69
2024/04/04 05:21:20;;;;;;;3.50;1.88;;;;;;;;;;2069844;28;20471;-74
2024/04/04 05:22:22;;;;;;;3.22;2.00;;;;;;;;;;2070212;28;20387;-72
2024/04/04 05:23:23;;;;;;;3.40;2.25;;;;;;;;;;2068124;28;20025;-74
2024/04/04 05:24:24;;;;;;;4.57;2.13;;;;;;;;;;2067763;28;20035;-70
2024/04/04 05:25:27;;;;;;;3.90;1.77;;;;;;;;;;2066276;28;20010;-74
2024/04/04 05:26:28;;;;;;;3.38;1.80;;;;;;;;;;2067369;28;20565;-72
2024/04/04 05:27:29;;;;;;;4.93;2.22;;;;;;;;;;2069606;28;20022;-72
2024/04/04 05:28:31;;;;;;;5.43;1.83;;;;;;;;;;2071482;28;20457;-74
2024/04/04 05:29:32;;;;;;;4.18;1.80;;;;;;;;;;2071514;28;20592;-70
2024/04/04 05:30:33;;;;;;;4.00;2.20;;;;;;;;;;2069259;28;20053;-69
2024/04/04 05:31:35;;;;;;;4.55;2.05;;;;;;;;;;2070324;28;20101;-69
2024/04/04 05:32:39;;;;;;;6.40;2.22;;;;;;;;;;2070984;28;20018;-68
2024/04/04 05:33:40;;;;;;;5.95;3.42;;;;;;;;;;2069398;28;20569;-71
2024/04/04 05:34:41;;;;;;;2.65;1.77;;;;;;;;;;2069942;28;20396;-69
2024/04/04 05:35:43;;;;;;;3.60;1.90;;;;;;;;;;2069705;28;20026;-68
2024/04/04 05:36:44;;;;;;;5.00;1.65;;;;;;;;;;2070465;28;20237;-66
2024/04/04 05:37:45;;;;;;;7.53;2.25;;;;;;;;;;2069916;28;20279;-64
2024/04/04 05:38:47;;;;;;;3.72;2.17;;;;;;;;;;2070612;28;20037;-62
2024/04/04 05:39:48;;;;;;;5.05;2.22;;;;;;;;;;2067575;28;20045;-65
2024/04/04 05:40:50;;;;;;;4.15;1.73;;;;;;;;;;2068681;28;20491;-60
2024/04/04 05:41:53;;;;;;;5.00;1.80;;;;;;;;;;2070869;28;20023;-60
2024/04/04 05:42:54;;;;;;;5.10;1.80;;;;;;;;;;2069373;28;20058;-61
2024/04/04 05:43:56;;;;;;;4.38;2.83;;;;;;;;;;2070774;28;20383;-62
2024/04/04 05:44:57;;;;;;;4.78;2.03;;;;;;;;;;2070481;28;20034;-62
2024/04/04 05:45:58;;;;;;;3.45;2.00;;;;;;;;;;2071147;28;20105;-62
2024/04/04 05:47:00;;;;;;;6.85;2.25;;;;;;;;;;2068897;28;20030;-63
2024/04/04 05:48:01;;;;;;;3.45;1.90;;;;;;;;;;2070654;28;20025;-62
2024/04/04 05:49:03;;;;;;;5.30;1.80;;;;;;;;;;2068386;28;20075;-62
2024/04/04 05:50:05;;;;;;;4.53;1.77;;;;;;;;;;2068056;28;20052;-65
2024/04/04 05:51:06;;;;;;;3.28;1.75;;;;;;;;;;2071011;28;20026;-66
2024/04/04 05:52:07;;;;;;;3.03;1.85;;;;;;;;;;2069861;28;20026;-66
2024/04/04 05:53:09;;;;;;;2.42;1.77;;;;;;;;;;2070458;28;20044;-65
2024/04/04 05:54:10;;;;;;;6.72;1.88;;;;;;;;;;2070723;28;20018;-64
2024/04/04 05:55:12;;;;;;;5.78;1.83;;;;;;;;;;2072158;28;20033;-66
2024/04/04 05:56:13;;;;;;;4.25;2.00;;;;;;;;;;2071129;28;20030;-64
2024/04/04 05:57:15;;;;;;;3.22;1.90;;;;;;;;;;2072388;28;20102;-64
2024/04/04 05:58:16;;;;;;;3.70;2.10;;;;;;;;;;2072148;28;20029;-63
2024/04/04 05:59:18;;;;;;;3.40;1.75;;;;;;;;;;2071571;28;20018;-63
2024/04/04 06:00:19;;;;;;;2.38;1.90;;;;;;;;;;2072781;28;20030;-63
2024/04/04 06:01:20;;;;;;;4.57;2.42;;;;;;;;;;2072808;28;20026;-63
2024/04/04 06:02:22;;;;;;;5.95;2.10;;;;;;;;;;2071779;28;20037;-63
2024/04/04 06:03:25;;;;;;;3.42;2.10;;;;;;;;;;2071835;28;20584;-62
2024/04/04 06:04:26;;;;;;;5.47;2.55;;;;;;;;;;2071502;28;20030;-63
2024/04/04 06:05:28;;;;;;;8.18;2.53;;;;;;;;;;2072107;28;20072;-62
2024/04/04 06:06:29;;;;;;;5.82;2.20;;;;;;;;;;2072944;28;20042;-63
2024/04/04 06:07:31;;;;;;;5.82;2.45;;;;;;;;;;2071038;28;20022;-62
2024/04/04 06:08:32;;;;;;;4.78;2.50;;;;;;;;;;2069310;28;20435;-63
2024/04/04 06:09:33;;;;;;;9.50;3.05;;;;;;;;;;2071504;28;20022;-62
2024/04/04 06:10:36;;;;;;;5.07;2.42;;;;;;;;;;2071217;28;20022;-62